INFORMACIÓN METAR y TAF
METAR FOR LEVT
ADDS - METARS form results

(1818 UTC 28 May 2020)
Data provider http://aviationweather.gov/metar/data/
 
METAR text: LEVT 281800Z 07004KT 9999 FEW040TCU 26/12 Q1020
Conditions at: LEVT (VITORIA , ES) observed 1800 UTC 28 May 2020
Temperature: 26.0°C (79°F)
Dewpoint: 12.0°C (54°F) [RH = 42%]
Pressure (altimeter): 30.12 inches Hg (1020.0 mb)
Winds: from the ENE (70 degrees) at 5 MPH (4 knots; 2.1 m/s)
Visibility: 6 or more miles (10+ km)
Ceiling: at least 12,000 feet AGL
Clouds: few clouds at 4000 feet AGL
Weather: no significant weather observed at this time

METAR text: LEVT 281730Z 08005KT 9999 FEW045 26/07 Q1020
Conditions at: LEVT (VITORIA , ES) observed 1730 UTC 28 May 2020
Temperature: 26.0°C (79°F)
Dewpoint: 7.0°C (45°F) [RH = 30%]
Pressure (altimeter): 30.12 inches Hg (1020.0 mb)
Winds: from the E (80 degrees) at 6 MPH (5 knots; 2.6 m/s)
Visibility: 6 or more miles (10+ km)
Ceiling: at least 12,000 feet AGL
Clouds: few clouds at 4500 feet AGL
Weather: no significant weather observed at this time

Forecast for: LEVT (VITORIA , ES)
Text: TAF LEVT 281700Z 2818/2918 VRB05KT CAVOK TX28/2913Z TN11/2905Z
Forecast period: 1800 UTC 28 May 2020 to 1800 UTC 29 May 2020
Forecast type: FROM: standard forecast or significant change
Winds: variable direction winds at 6 MPH (5 knots; 2.6 m/s)
Visibility: 6 or more miles 10+ km)
Ceiling: unknown
Clouds: missing
Weather: no significant weather forecast for this period
Text: TEMPO 2818/2820 03010KT
Forecast period: 1800 to 2000 UTC 28 May 2020
Forecast type: TEMPORARY: The following changes expected for less than half the time period
Winds: from the NNE (30 degrees) at 12 MPH (10 knots; 5.1 m/s)
Visibility: missing
Ceiling: unknown
Clouds: missing
Weather: no significant weather forecast for this period
Text: TEMPO 2912/2918 03010KT
Forecast period: 1200 to 1800 UTC 29 May 2020
Forecast type: TEMPORARY: The following changes expected for less than half the time period
Winds: from the NNE (30 degrees) at 12 MPH (10 knots; 5.1 m/s)
Visibility: missing
Ceiling: unknown
Clouds: missing
Weather: no significant weather forecast for this period

 MAPA DE AEROPUERTO

 INFORMACIÓN DE PISTA
Pista 04 Longitud 11483 ft Ancho 148 ft
Elevación 1651 ft Umbral desplazado 0 ft Rumbo de pista 36
Pista 22 Longitud 11483 ft Ancho 148 ft
Elevación 1682 ft Umbral desplazado 0 ft Rumbo de pista 216

 FRECUANCIAS DEL AEROPUERTO
Tipo GND Nombre GND Frecuencia 121.8 MHZ
Tipo TWR Nombre TWR Frecuencia 118.45 MHZ

 RADIO AYUDAS DEL AEROPUERTO
Tipo VOR-DME Nombre Vitoria Frecuencia 112900 KHZ
Tipo VOR-DME Nombre Vitoria Frecuencia 116600 KHZ